»·PEaware :: N8979T KMCC-KTVL

N8979T :: KMCC-KTVL

FLIGHT INFORMATION

Flight Status: Arrived
Operator: Privately registered:
United States
More flights under this callsign
Pilot: Brett J. (1348)
Aircraft: CESSNA 172 SKYHAWK
(C172)
More flights by this aircraft type
Origin: KMCC McClellan
United States
Destination: KTVL Lake Tahoe
United States
More flights between these airports :: More routes between these airports
Route: +FOLLY HNW V338 SWR
File this flight plan on PilotEdge
Remarks:
Altitude:
(Current/Filed)
5,000ft
Speed:
(Current/Filed)
140kts
Departed: 09-Mar-18 01:18 PM
Arrived: 09-Mar-18 02:05 PM
Distance/Time
Traveled:
67nm/0:47
Distance/Time
To Go:
Arrived

Flight Plot

Page will automatically refresh every two minutes.

Flight plan parsing failed; only flown route is shown


Map Options




Map Legend


Flown Route
Filed Route
Departure Airport
Arrival Airport
Navaid (VOR, NDB)
Fix

Horizontal Profiles

Position Reports

Time Latitude Longitude Heading Altitude Ground
Speed
09-Mar-18 13:05 38.663068 -121.397116 0 79ft 0kts
09-Mar-18 13:06 38.663068 -121.397116 0 79ft 0kts
09-Mar-18 13:07 38.663068 -121.397116 0 79ft 0kts
09-Mar-18 13:08 38.663068 -121.397116 0 79ft 0kts
09-Mar-18 13:09 38.663068 -121.397116 0 79ft 0kts
09-Mar-18 13:10 38.663068 -121.397116 0 79ft 0kts
09-Mar-18 13:11 38.663068 -121.397116 0 79ft 0kts
09-Mar-18 13:12 38.663068 -121.397116 0 79ft 0kts
09-Mar-18 13:13 38.663068 -121.397116 0 79ft 0kts
09-Mar-18 13:14 38.663117 -121.397124 340 79ft 0kts
09-Mar-18 13:14 38.661177 -121.397840 183 79ft 19kts
09-Mar-18 13:16 38.654162 -121.398615 240 79ft 19kts
09-Mar-18 13:17 38.664621 -121.400660 0 200ft 93kts
09-Mar-18 13:17 38.674455 -121.377556 93 628ft 113kts
09-Mar-18 13:19 38.674968 -121.335473 86 1530ft 93kts
09-Mar-18 13:20 38.677017 -121.303999 85 2316ft 85kts
09-Mar-18 13:20 38.678988 -121.279678 85 3030ft 82kts
09-Mar-18 13:21 38.681448 -121.251209 86 3918ft 80kts
09-Mar-18 13:22 38.683851 -121.224049 87 4798ft 73kts
09-Mar-18 13:23 38.685924 -121.200735 101 5596ft 59kts
09-Mar-18 13:24 38.688004 -121.173959 88 6134ft 89kts
09-Mar-18 13:25 38.691041 -121.139319 88 6660ft 105kts
09-Mar-18 13:26 38.694250 -121.102976 88 7331ft 100kts
09-Mar-18 13:28 38.697306 -121.068517 88 8017ft 95kts
09-Mar-18 13:29 38.700180 -121.035835 87 8690ft 90kts
09-Mar-18 13:30 38.703045 -121.003470 87 9289ft 92kts
09-Mar-18 13:31 38.705863 -120.971455 88 9878ft 89kts
09-Mar-18 13:32 38.708548 -120.941487 85 10436ft 78kts
09-Mar-18 13:33 38.705759 -120.906175 104 10627ft 110kts
09-Mar-18 13:34 38.711469 -120.862042 79 10818ft 126kts
09-Mar-18 13:35 38.717965 -120.818102 86 11060ft 134kts
09-Mar-18 13:36 38.722748 -120.770415 87 11056ft 135kts
09-Mar-18 13:37 38.743074 -120.731106 40 11057ft 142kts
09-Mar-18 13:38 38.773610 -120.698466 39 11056ft 144kts
09-Mar-18 13:39 38.804618 -120.665874 39 11056ft 145kts
09-Mar-18 13:40 38.835916 -120.633058 39 11056ft 145kts
09-Mar-18 13:41 38.867078 -120.600338 39 11056ft 145kts
09-Mar-18 13:42 38.898359 -120.567466 38 11058ft 146kts
09-Mar-18 13:43 38.929178 -120.535027 38 11059ft 138kts
09-Mar-18 13:44 38.958199 -120.504469 37 11065ft 133kts
09-Mar-18 13:45 38.986693 -120.474448 36 11069ft 132kts
09-Mar-18 13:46 39.015310 -120.444262 35 11068ft 134kts
09-Mar-18 13:47 39.044384 -120.413565 34 11066ft 136kts
09-Mar-18 13:48 39.073704 -120.382607 33 11060ft 137kts
09-Mar-18 13:49 39.101778 -120.350255 62 10776ft 146kts
09-Mar-18 13:50 39.093208 -120.307414 153 9587ft 111kts
09-Mar-18 13:51 39.073883 -120.276529 142 8964ft 110kts
09-Mar-18 13:52 39.060733 -120.243030 124 8801ft 99kts
09-Mar-18 13:53 39.053487 -120.206134 100 9132ft 114kts
09-Mar-18 13:54 39.054131 -120.164820 95 9635ft 118kts
09-Mar-18 13:55 39.051706 -120.123404 102 9794ft 120kts
09-Mar-18 13:56 39.048284 -120.081720 107 9580ft 120kts
09-Mar-18 13:57 39.041026 -120.037121 112 8949ft 127kts
09-Mar-18 13:58 39.025177 -120.000085 147 8378ft 114kts
09-Mar-18 13:59 39.000256 -119.979660 168 7890ft 100kts
09-Mar-18 14:00 38.974851 -119.972584 184 7494ft 89kts
09-Mar-18 14:01 38.952210 -119.977165 194 7392ft 62kts
09-Mar-18 14:02 38.934366 -119.984015 190 6916ft 69kts
09-Mar-18 14:03 38.915583 -119.988982 194 6570ft 65kts
09-Mar-18 14:04 38.901028 -119.993236 189 6267ft 31kts
09-Mar-18 14:05 38.897795 -119.996288 192 6267ft 9kts
09-Mar-18 14:06 38.897461 -119.996149 109 6267ft 0kts

Navigation Log

Ident Type
Flight plan parsing failed, navigation log unavailable